createdAt,value
2023-04-22T00:00:23.202Z,98547.03
2023-04-22T00:02:57.201Z,98551.25
2023-04-22T00:05:31.746Z,98556.00
2023-04-22T00:08:05.048Z,98565.03
2023-04-22T00:10:37.873Z,98548.25
2023-04-22T00:13:11.033Z,98539.09
2023-04-22T00:15:44.008Z,98539.59
2023-04-22T00:18:16.843Z,98532.09
2023-04-22T00:20:51.072Z,98526.94
2023-04-22T00:23:23.902Z,98531.72
2023-04-22T00:25:56.908Z,98531.16
2023-04-22T00:28:29.720Z,98535.75
2023-04-22T00:31:03.392Z,98529.03
2023-04-22T00:33:36.413Z,98525.13
2023-04-22T00:36:11.162Z,98528.13
2023-04-22T00:38:49.661Z,98522.06
2023-04-22T00:41:23.335Z,98522.16
2023-04-22T00:43:56.817Z,98520.09
2023-04-22T00:46:30.604Z,98520.59
2023-04-22T00:49:03.678Z,98525.22
2023-04-22T00:51:37.819Z,98522.56
2023-04-22T00:54:10.693Z,98526.47
2023-04-22T00:56:43.631Z,98535.03
2023-04-22T00:59:16.537Z,98519.56
2023-04-22T01:01:49.408Z,98521.56
2023-04-22T01:04:23.068Z,98535.00
2023-04-22T01:06:57.537Z,98525.13
2023-04-22T01:09:30.647Z,98542.81
2023-04-22T01:12:03.794Z,98527.88
2023-04-22T01:14:36.850Z,98524.41
2023-04-22T01:17:12.073Z,98524.84
2023-04-22T01:19:46.012Z,98527.16
2023-04-22T01:22:20.468Z,98527.59
2023-04-22T01:24:55.555Z,98531.16
2023-04-22T01:27:28.888Z,98542.94
2023-04-22T01:30:01.814Z,98531.91
2023-04-22T01:32:34.868Z,98542.88
2023-04-22T01:35:09.337Z,98536.94
2023-04-22T01:37:42.405Z,98533.56
2023-04-22T01:40:19.820Z,98535.59
2023-04-22T01:42:53.212Z,98537.59
2023-04-22T01:45:26.477Z,98536.88
2023-04-22T01:47:59.642Z,98539.22
2023-04-22T01:50:32.575Z,98543.97
2023-04-22T01:53:07.901Z,98543.09
2023-04-22T01:55:47.138Z,98547.97
2023-04-22T01:58:20.281Z,98552.56
2023-04-22T02:00:53.742Z,98545.97
2023-04-22T02:03:26.626Z,98551.88
2023-04-22T02:06:01.734Z,98558.00
2023-04-22T02:08:35.873Z,98553.56
2023-04-22T02:11:10.053Z,98560.84
2023-04-22T02:13:42.933Z,98551.81
2023-04-22T02:16:15.973Z,98558.06
2023-04-22T02:18:48.849Z,98567.88
2023-04-22T02:21:22.008Z,98559.13
2023-04-22T02:23:54.788Z,98561.78
2023-04-22T02:26:29.113Z,98557.44
2023-04-22T02:29:02.151Z,98568.44
2023-04-22T02:31:35.201Z,98548.44
2023-04-22T02:34:08.274Z,98562.41
2023-04-22T02:36:41.050Z,98548.97
2023-04-22T02:39:14.407Z,98557.34
2023-04-22T02:41:48.963Z,98553.34
2023-04-22T02:44:21.807Z,98547.19
2023-04-22T02:46:54.789Z,98549.03
2023-04-22T02:49:27.601Z,98547.41
2023-04-22T02:52:00.537Z,98535.59
2023-04-22T02:54:33.577Z,98539.84
2023-04-22T02:57:07.823Z,98540.34
2023-04-22T02:59:40.914Z,98535.50
2023-04-22T03:02:15.101Z,98538.06
2023-04-22T03:05:11.667Z,98533.59
2023-04-22T03:07:47.480Z,98549.88
2023-04-22T03:10:22.317Z,98541.59
2023-04-22T03:12:57.922Z,98542.63
2023-04-22T03:15:31.661Z,98542.47
2023-04-22T03:18:04.625Z,98546.72
2023-04-22T03:20:37.641Z,98548.03
2023-04-22T03:23:10.753Z,98542.13
2023-04-22T03:25:44.278Z,98543.06
2023-04-22T03:28:19.017Z,98546.22
2023-04-22T03:30:52.122Z,98546.56
2023-04-22T03:33:25.785Z,98553.34
2023-04-22T03:36:03.172Z,98549.69
2023-04-22T03:38:36.019Z,98547.94
2023-04-22T03:41:09.338Z,98546.72
2023-04-22T03:43:50.135Z,98538.13
2023-04-22T03:46:23.961Z,98542.72
2023-04-22T03:49:05.175Z,98534.69
2023-04-22T03:51:40.676Z,98530.44
2023-04-22T03:54:18.028Z,98534.44
2023-04-22T03:56:55.511Z,98542.03
2023-04-22T03:59:30.934Z,98540.63
2023-04-22T04:02:04.169Z,98542.19
2023-04-22T04:04:37.404Z,98539.94
2023-04-22T04:07:11.356Z,98540.19
2023-04-22T04:09:44.177Z,98544.81
2023-04-22T04:12:17.842Z,98537.16
2023-04-22T04:14:52.569Z,98541.75
2023-04-22T04:17:28.815Z,98539.16
2023-04-22T04:20:02.024Z,98539.44
2023-04-22T04:22:36.140Z,98545.41
2023-04-22T04:25:11.850Z,98542.88
2023-04-22T04:27:50.404Z,98553.50
2023-04-22T04:30:25.843Z,98548.81
2023-04-22T04:33:07.373Z,98542.63
2023-04-22T04:35:43.316Z,98537.81
2023-04-22T04:38:18.144Z,98546.53
2023-04-22T04:40:51.901Z,98545.41
2023-04-22T04:43:29.436Z,98549.56
2023-04-22T04:46:16.666Z,98547.63
2023-04-22T04:48:50.815Z,98560.72
2023-04-22T04:51:24.590Z,98547.31
2023-04-22T04:54:02.474Z,98546.28
2023-04-22T04:56:41.022Z,98541.28
2023-04-22T04:59:15.880Z,98557.03
2023-04-22T05:01:50.575Z,98554.81
2023-04-22T05:04:23.669Z,98559.53
2023-04-22T05:06:56.685Z,98563.78
2023-04-22T05:09:37.222Z,98554.22
2023-04-22T05:12:10.406Z,98558.38
2023-04-22T05:14:43.432Z,98558.09
2023-04-22T05:17:17.778Z,98560.72
2023-04-22T05:19:50.930Z,98566.09
2023-04-22T05:22:23.883Z,98567.13
2023-04-22T05:24:56.724Z,98569.03
2023-04-22T05:27:30.706Z,98568.34
2023-04-22T05:30:03.925Z,98567.22
2023-04-22T05:32:40.596Z,98573.91
2023-04-22T05:35:13.780Z,98573.47
2023-04-22T05:37:48.055Z,98572.66
2023-04-22T05:40:21.197Z,98576.25
2023-04-22T05:42:54.040Z,98569.16
2023-04-22T05:45:27.326Z,98572.81
2023-04-22T05:48:01.606Z,98579.03
2023-04-22T05:50:38.485Z,98575.34
2023-04-22T05:53:14.264Z,98576.06
2023-04-22T05:55:48.723Z,98573.50
2023-04-22T05:58:21.592Z,98572.06
2023-04-22T06:01:01.573Z,98573.94
2023-04-22T06:04:01.907Z,98564.53
2023-04-22T06:06:35.464Z,98571.25
2023-04-22T06:09:08.747Z,98565.38
2023-04-22T06:11:41.927Z,98565.53
2023-04-22T06:14:15.124Z,98566.97
2023-04-22T06:16:50.470Z,98565.59
2023-04-22T06:19:24.818Z,98560.28
2023-04-22T06:21:57.888Z,98554.38
2023-04-22T06:24:31.000Z,98560.44
2023-04-22T06:27:04.171Z,98553.47
2023-04-22T06:29:37.335Z,98547.22
2023-04-22T06:32:10.522Z,98553.00
2023-04-22T06:34:44.757Z,98550.50
2023-04-22T06:37:17.672Z,98552.03
2023-04-22T06:39:51.767Z,98553.59
2023-04-22T06:43:00.179Z,98546.56
2023-04-22T06:45:56.522Z,98547.63
2023-04-22T06:48:40.236Z,98557.31
2023-04-22T06:51:40.838Z,98549.63
2023-04-22T06:54:14.292Z,98546.66
2023-04-22T06:56:47.459Z,98549.72
2023-04-22T06:59:23.136Z,98551.44
2023-04-22T07:01:56.098Z,98552.75
2023-04-22T07:04:29.506Z,98550.09
2023-04-22T07:07:05.967Z,98551.84
2023-04-22T07:09:39.828Z,98548.13
2023-04-22T07:12:13.332Z,98544.63
2023-04-22T07:14:46.968Z,98552.16
2023-04-22T07:17:22.571Z,98548.50
2023-04-22T07:19:55.418Z,98542.13
2023-04-22T07:22:29.636Z,98549.44
2023-04-22T07:25:02.574Z,98550.56
2023-04-22T07:27:37.199Z,98551.50
2023-04-22T07:30:12.997Z,98547.50
2023-04-22T07:32:48.244Z,98540.28
2023-04-22T07:35:21.669Z,98545.47
2023-04-22T07:37:55.969Z,98543.03
2023-04-22T07:40:28.958Z,98544.47
2023-04-22T07:43:01.901Z,98545.25
2023-04-22T07:45:34.928Z,98548.56
2023-04-22T07:48:07.852Z,98548.56
2023-04-22T07:50:41.162Z,98541.22
2023-04-22T07:53:18.038Z,98545.69
2023-04-22T07:55:51.041Z,98542.03
2023-04-22T07:58:23.841Z,98544.66
2023-04-22T08:00:57.014Z,98536.66
2023-04-22T08:03:30.335Z,98541.94
2023-04-22T08:06:03.397Z,98538.03
2023-04-22T08:08:37.727Z,98539.81
2023-04-22T08:11:10.781Z,98538.94
2023-04-22T08:13:43.623Z,98537.00
2023-04-22T08:16:16.681Z,98533.50
2023-04-22T08:18:49.477Z,98538.88
2023-04-22T08:21:22.678Z,98536.19
2023-04-22T08:23:56.795Z,98536.06
2023-04-22T08:26:29.676Z,98543.09
2023-04-22T08:29:02.760Z,98532.69
2023-04-22T08:31:35.815Z,98533.03
2023-04-22T08:34:08.720Z,98532.44
2023-04-22T08:36:41.769Z,98532.25
2023-04-22T08:39:16.010Z,98532.75
2023-04-22T08:41:50.383Z,98532.03
2023-04-22T08:44:23.711Z,98532.19
2023-04-22T08:46:57.406Z,98518.84
2023-04-22T08:49:31.480Z,98520.63
2023-04-22T08:52:04.791Z,98516.09
2023-04-22T08:54:39.281Z,98513.63
2023-04-22T08:57:13.268Z,98524.47
2023-04-22T08:59:46.561Z,98523.06
2023-04-22T09:02:21.944Z,98513.28
2023-04-22T09:04:55.019Z,98514.38
2023-04-22T09:07:29.521Z,98519.81
2023-04-22T09:10:04.504Z,98517.38
2023-04-22T09:12:41.198Z,98506.16
2023-04-22T09:15:14.151Z,98511.09
2023-04-22T09:17:47.060Z,98509.03
2023-04-22T09:20:20.615Z,98513.59
2023-04-22T09:22:53.997Z,98506.50
2023-04-22T09:25:28.777Z,98514.72
2023-04-22T09:28:02.290Z,98504.66
2023-04-22T09:30:37.955Z,98517.41
2023-04-22T09:33:11.063Z,98500.28
2023-04-22T09:35:47.452Z,98504.34
2023-04-22T09:38:21.831Z,98495.00
2023-04-22T09:40:56.255Z,98503.31
2023-04-22T09:43:33.839Z,98506.44
2023-04-22T09:46:06.797Z,98505.19
2023-04-22T09:48:43.624Z,98505.44
2023-04-22T09:51:17.318Z,98506.97
2023-04-22T09:54:10.618Z,98499.72
2023-04-22T09:56:48.516Z,98495.31
2023-04-22T09:59:23.182Z,98494.03
2023-04-22T10:02:01.267Z,98496.81
2023-04-22T10:04:34.369Z,98498.63
2023-04-22T10:07:07.554Z,98496.09
2023-04-22T10:09:40.996Z,98492.19
2023-04-22T10:12:16.666Z,98492.75
2023-04-22T10:14:53.419Z,98481.66
2023-04-22T10:17:27.015Z,98489.63
2023-04-22T10:20:03.773Z,98495.25
2023-04-22T10:22:36.781Z,98488.19
2023-04-22T10:25:14.315Z,98483.97
2023-04-22T10:27:54.138Z,98486.06
2023-04-22T10:30:31.343Z,98486.84
2023-04-22T10:33:42.092Z,98480.88
2023-04-22T10:36:18.624Z,98478.38
2023-04-22T10:39:17.891Z,98476.63
2023-04-22T10:42:05.185Z,98477.63
2023-04-22T10:44:50.402Z,98477.97
2023-04-22T10:47:30.959Z,98468.56
2023-04-22T10:50:24.012Z,98475.25
2023-04-22T10:52:59.613Z,98462.72
2023-04-22T10:55:50.645Z,98449.00
2023-04-22T10:58:25.793Z,98458.59
2023-04-22T11:01:03.172Z,98454.94
2023-04-22T11:03:36.229Z,98454.69
2023-04-22T11:06:16.878Z,98448.94
2023-04-22T11:08:51.588Z,98456.59
2023-04-22T11:11:24.809Z,98449.06
2023-04-22T11:13:59.161Z,98444.00
2023-04-22T11:16:34.212Z,98449.94
2023-04-22T11:19:07.142Z,98454.22
2023-04-22T11:21:40.545Z,98447.16
2023-04-22T11:24:13.281Z,98442.28
2023-04-22T11:26:46.926Z,98449.91
2023-04-22T11:29:19.883Z,98452.53
2023-04-22T11:31:54.149Z,98446.78
2023-04-22T11:34:27.462Z,98451.72
2023-04-22T11:37:00.266Z,98441.50
2023-04-22T11:39:43.661Z,98442.88
2023-04-22T11:42:23.565Z,98437.84
2023-04-22T11:44:56.611Z,98436.16
2023-04-22T11:47:32.048Z,98429.81
2023-04-22T11:50:09.687Z,98431.78
2023-04-22T11:52:45.784Z,98438.91
2023-04-22T11:55:22.960Z,98426.28
2023-04-22T11:57:57.850Z,98425.66
2023-04-22T12:00:34.426Z,98416.19
2023-04-22T12:03:15.495Z,98417.84
2023-04-22T12:05:52.561Z,98406.34
2023-04-22T12:08:27.007Z,98403.88
2023-04-22T12:11:02.100Z,98403.38
2023-04-22T12:13:42.742Z,98404.19
2023-04-22T12:16:18.665Z,98402.94
2023-04-22T12:18:54.112Z,98400.97
2023-04-22T12:21:28.602Z,98398.25
2023-04-22T12:24:08.057Z,98399.75
2023-04-22T12:26:40.843Z,98397.91
2023-04-22T12:29:13.707Z,98394.72
2023-04-22T12:31:46.646Z,98395.94
2023-04-22T12:34:20.822Z,98388.63
2023-04-22T12:36:54.883Z,98398.75
2023-04-22T12:39:27.992Z,98386.97
2023-04-22T12:42:00.797Z,98387.50
2023-04-22T12:44:33.552Z,98386.06
2023-04-22T12:47:06.559Z,98389.56
2023-04-22T12:49:46.939Z,98382.78
2023-04-22T12:52:19.966Z,98379.00
2023-04-22T12:54:52.999Z,98384.59
2023-04-22T12:57:27.092Z,98373.66
2023-04-22T13:00:00.097Z,98369.78
2023-04-22T13:02:32.952Z,98364.63
2023-04-22T13:05:07.518Z,98366.50
2023-04-22T13:07:41.758Z,98371.47
2023-04-22T13:10:16.712Z,98367.41
2023-04-22T13:12:50.043Z,98361.34
2023-04-22T13:15:22.827Z,98357.06
2023-04-22T13:17:55.660Z,98361.16
2023-04-22T13:20:30.058Z,98358.25
2023-04-22T13:23:04.804Z,98365.81
2023-04-22T13:25:37.931Z,98359.56
2023-04-22T13:28:12.105Z,98360.00
2023-04-22T13:30:45.248Z,98349.13
2023-04-22T13:33:17.967Z,98348.22
2023-04-22T13:35:52.143Z,98343.16
2023-04-22T13:38:25.137Z,98350.63
2023-04-22T13:40:57.968Z,98351.50
2023-04-22T13:43:30.805Z,98344.88
2023-04-22T13:46:03.744Z,98341.19
2023-04-22T13:48:36.961Z,98338.34
2023-04-22T13:51:11.110Z,98331.38
2023-04-22T13:53:44.214Z,98315.28
2023-04-22T13:56:17.181Z,98320.41
2023-04-22T13:58:50.192Z,98314.94
2023-04-22T14:01:23.137Z,98309.47
2023-04-22T14:03:56.025Z,98310.13
2023-04-22T14:06:30.392Z,98305.34
2023-04-22T14:09:05.000Z,98297.41
2023-04-22T14:11:37.887Z,98304.38
2023-04-22T14:14:11.108Z,98304.13
2023-04-22T14:16:44.049Z,98296.09
2023-04-22T14:19:16.907Z,98303.25
2023-04-22T14:21:51.247Z,98297.59
2023-04-22T14:24:24.580Z,98300.56
2023-04-22T14:27:00.289Z,98297.00
2023-04-22T14:29:33.207Z,98297.91
2023-04-22T14:32:06.245Z,98305.91
2023-04-22T14:34:39.702Z,98302.63
2023-04-22T14:37:13.972Z,98306.78
2023-04-22T14:39:46.824Z,98300.69
2023-04-22T14:42:20.469Z,98300.31
2023-04-22T14:44:53.562Z,98302.47
2023-04-22T14:47:26.613Z,98302.97
2023-04-22T14:49:59.449Z,98298.16
2023-04-22T14:52:34.014Z,98303.56
2023-04-22T14:55:19.580Z,98289.28
2023-04-22T14:57:57.730Z,98293.16
2023-04-22T15:00:31.141Z,98293.53
2023-04-22T15:03:05.035Z,98297.47
2023-04-22T15:05:37.915Z,98297.94
2023-04-22T15:08:14.685Z,98298.22
2023-04-22T15:10:47.544Z,98293.06
2023-04-22T15:13:21.010Z,98295.78
2023-04-22T15:15:53.870Z,98298.41
2023-04-22T15:18:27.483Z,98293.44
2023-04-22T15:21:00.357Z,98291.66
2023-04-22T15:23:34.511Z,98296.88
2023-04-22T15:26:07.421Z,98289.03
2023-04-22T15:28:40.491Z,98292.44
2023-04-22T15:31:13.472Z,98285.97
2023-04-22T15:33:46.520Z,98292.72
2023-04-22T15:36:21.644Z,98286.06
2023-04-22T15:38:57.103Z,98283.94
2023-04-22T15:41:29.974Z,98298.41
2023-04-22T15:44:03.645Z,98290.38
2023-04-22T15:46:36.602Z,98287.03
2023-04-22T15:49:09.411Z,98282.69
2023-04-22T15:51:42.669Z,98275.59
2023-04-22T15:54:17.006Z,98290.91
2023-04-22T15:56:49.908Z,98280.50
2023-04-22T15:59:22.900Z,98273.34
2023-04-22T16:01:56.428Z,98281.06
2023-04-22T16:04:29.773Z,98275.34
2023-04-22T16:07:02.679Z,98279.91
2023-04-22T16:09:36.918Z,98276.38
2023-04-22T16:12:09.704Z,98279.13
2023-04-22T16:14:42.541Z,98282.88
2023-04-22T16:17:15.914Z,98287.44
2023-04-22T16:19:48.880Z,98289.13
2023-04-22T16:22:21.996Z,98287.91
2023-04-22T16:25:15.175Z,98289.78
2023-04-22T16:27:48.286Z,98279.50
2023-04-22T16:30:21.094Z,98287.81
2023-04-22T16:32:53.837Z,98274.94
2023-04-22T16:35:26.609Z,98278.31
2023-04-22T16:37:59.871Z,98294.75
2023-04-22T16:40:35.046Z,98301.72
2023-04-22T16:43:09.204Z,98300.28
2023-04-22T16:45:42.754Z,98291.56
2023-04-22T16:48:15.985Z,98288.97
2023-04-22T16:50:49.513Z,98287.97
2023-04-22T16:53:22.289Z,98289.28
2023-04-22T16:55:56.714Z,98289.53
2023-04-22T16:58:29.544Z,98290.31
2023-04-22T17:01:02.378Z,98300.09
2023-04-22T17:03:35.404Z,98297.53
2023-04-22T17:06:08.798Z,98302.38
2023-04-22T17:08:41.553Z,98307.09
2023-04-22T17:11:15.947Z,98297.78
2023-04-22T17:13:48.911Z,98301.16
2023-04-22T17:16:21.808Z,98303.22
2023-04-22T17:18:54.732Z,98304.16
2023-04-22T17:21:28.067Z,98307.28
2023-04-22T17:24:02.262Z,98306.22
2023-04-22T17:26:37.119Z,98310.63
2023-04-22T17:29:09.905Z,98308.22
2023-04-22T17:31:42.881Z,98310.09
2023-04-22T17:34:15.909Z,98316.50
2023-04-22T17:36:48.887Z,98314.16
2023-04-22T17:39:22.043Z,98312.31
2023-04-22T17:41:57.668Z,98313.09
2023-04-22T17:44:32.005Z,98307.34
2023-04-22T17:47:06.801Z,98318.88
2023-04-22T17:49:40.506Z,98310.88
2023-04-22T17:52:13.627Z,98317.06
2023-04-22T17:54:46.770Z,98315.78
2023-04-22T17:57:21.262Z,98316.25
2023-04-22T17:59:54.537Z,98316.25
2023-04-22T18:02:27.896Z,98313.03
2023-04-22T18:05:01.444Z,98317.88
2023-04-22T18:07:34.495Z,98309.81
2023-04-22T18:10:08.838Z,98316.91
2023-04-22T18:12:44.355Z,98323.84
2023-04-22T18:15:17.407Z,98318.88
2023-04-22T18:17:50.261Z,98317.34
2023-04-22T18:20:23.253Z,98321.59
2023-04-22T18:22:56.620Z,98325.50
2023-04-22T18:25:29.897Z,98326.59
2023-04-22T18:28:04.144Z,98327.84
2023-04-22T18:30:37.104Z,98322.19
2023-04-22T18:33:10.128Z,98332.06
2023-04-22T18:35:43.120Z,98332.13
2023-04-22T18:38:16.538Z,98341.09
2023-04-22T18:40:49.357Z,98344.09
2023-04-22T18:43:23.616Z,98343.84
2023-04-22T18:45:56.612Z,98355.28
2023-04-22T18:48:29.532Z,98349.72
2023-04-22T18:51:02.586Z,98351.75
2023-04-22T18:53:35.466Z,98351.34
2023-04-22T18:56:08.220Z,98351.88
2023-04-22T18:58:42.685Z,98351.63
2023-04-22T19:01:16.334Z,98355.28
2023-04-22T19:03:49.829Z,98362.44
2023-04-22T19:06:22.662Z,98369.28
2023-04-22T19:08:55.554Z,98373.41
2023-04-22T19:11:28.888Z,98377.31
2023-04-22T19:14:03.344Z,98380.09
2023-04-22T19:16:36.149Z,98380.38
2023-04-22T19:19:08.901Z,98383.44
2023-04-22T19:21:42.087Z,98384.78
2023-04-22T19:24:16.275Z,98390.59
2023-04-22T19:26:49.357Z,98390.31
2023-04-22T19:29:23.517Z,98392.09
2023-04-22T19:31:58.912Z,98391.84
2023-04-22T19:34:32.672Z,98388.72
2023-04-22T19:37:06.104Z,98389.63
2023-04-22T19:39:39.523Z,98390.63
2023-04-22T19:42:12.811Z,98386.38
2023-04-22T19:44:48.384Z,98393.88
2023-04-22T19:47:21.552Z,98391.22
2023-04-22T19:49:54.851Z,98389.97
2023-04-22T19:52:28.844Z,98389.53
2023-04-22T19:55:08.753Z,98389.03
2023-04-22T19:57:42.355Z,98387.84
2023-04-22T20:00:17.671Z,98393.88
2023-04-22T20:02:51.669Z,98386.00
2023-04-22T20:05:26.199Z,98388.63
2023-04-22T20:07:59.846Z,98383.88
2023-04-22T20:10:33.007Z,98380.78
2023-04-22T20:13:06.279Z,98383.09
2023-04-22T20:15:41.006Z,98389.41
2023-04-22T20:18:14.191Z,98394.47
2023-04-22T20:20:48.226Z,98391.03
2023-04-22T20:23:24.147Z,98389.91
2023-04-22T20:25:57.760Z,98396.19
2023-04-22T20:28:43.870Z,98394.94
2023-04-22T20:31:20.514Z,98397.56
2023-04-22T20:33:53.959Z,98400.88
2023-04-22T20:36:27.440Z,98400.72
2023-04-22T20:39:05.283Z,98407.19
2023-04-22T20:41:39.870Z,98399.81
2023-04-22T20:44:14.217Z,98397.78
2023-04-22T20:46:48.777Z,98400.03
2023-04-22T20:49:22.059Z,98408.69
2023-04-22T20:51:56.374Z,98404.97
2023-04-22T20:54:30.319Z,98416.81
2023-04-22T20:57:04.817Z,98421.09
2023-04-22T20:59:37.801Z,98420.91
2023-04-22T21:02:13.382Z,98427.63
2023-04-22T21:04:46.583Z,98427.81
2023-04-22T21:07:21.685Z,98424.78
2023-04-22T21:09:54.808Z,98427.81
2023-04-22T21:12:28.240Z,98439.19
2023-04-22T21:15:02.026Z,98435.97
2023-04-22T21:17:38.717Z,98433.84
2023-04-22T21:20:12.424Z,98436.81
2023-04-22T21:22:47.135Z,98438.69
2023-04-22T21:25:23.467Z,98448.47
2023-04-22T21:27:56.806Z,98436.63
2023-04-22T21:30:30.497Z,98448.75
2023-04-22T21:33:04.738Z,98448.97
2023-04-22T21:35:39.282Z,98447.38
2023-04-22T21:38:12.654Z,98437.59
2023-04-22T21:40:45.698Z,98436.41
2023-04-22T21:43:18.638Z,98433.19
2023-04-22T21:45:51.668Z,98432.13
2023-04-22T21:48:26.540Z,98425.53
2023-04-22T21:51:00.175Z,98429.41
2023-04-22T21:53:33.500Z,98422.78
2023-04-22T21:56:06.879Z,98423.25
2023-04-22T21:58:39.885Z,98422.78
2023-04-22T22:01:13.337Z,98412.97
2023-04-22T22:03:48.085Z,98413.75
2023-04-22T22:06:21.086Z,98415.69
2023-04-22T22:08:54.891Z,98415.19
2023-04-22T22:11:31.165Z,98416.56
2023-04-22T22:14:04.796Z,98425.97
2023-04-22T22:16:38.413Z,98421.66
2023-04-22T22:19:14.071Z,98416.69
2023-04-22T22:21:47.330Z,98424.94
2023-04-22T22:24:20.164Z,98425.09
2023-04-22T22:26:53.113Z,98433.16
2023-04-22T22:29:26.106Z,98429.84
2023-04-22T22:31:59.152Z,98431.97
2023-04-22T22:34:33.881Z,98432.66
2023-04-22T22:37:07.076Z,98433.41
2023-04-22T22:39:39.963Z,98426.03
2023-04-22T22:42:12.864Z,98445.38
2023-04-22T22:44:45.672Z,98447.03
2023-04-22T22:47:18.881Z,98445.94
2023-04-22T22:49:53.552Z,98444.34
2023-04-22T22:52:26.361Z,98450.84
2023-04-22T22:54:59.558Z,98446.44
2023-04-22T22:57:32.396Z,98447.38
2023-04-22T23:00:06.998Z,98454.59
2023-04-22T23:02:40.385Z,98444.22
2023-04-22T23:05:14.892Z,98446.00
2023-04-22T23:07:47.772Z,98444.94
2023-04-22T23:10:23.994Z,98441.13
2023-04-22T23:13:04.307Z,98444.16
2023-04-22T23:15:37.571Z,98442.06
2023-04-22T23:18:10.644Z,98444.66
2023-04-22T23:20:45.232Z,98445.44
2023-04-22T23:23:19.942Z,98442.34
2023-04-22T23:25:53.549Z,98438.38
2023-04-22T23:28:26.950Z,98441.50
2023-04-22T23:31:00.059Z,98438.94
2023-04-22T23:33:36.057Z,98436.50
2023-04-22T23:36:14.104Z,98430.38
2023-04-22T23:38:47.145Z,98434.00
2023-04-22T23:41:19.969Z,98424.31
2023-04-22T23:43:53.307Z,98415.88
2023-04-22T23:46:26.841Z,98418.72
2023-04-22T23:49:01.457Z,98426.84
2023-04-22T23:51:35.960Z,98418.28
2023-04-22T23:54:09.084Z,98414.81
2023-04-22T23:56:43.015Z,98415.84
2023-04-22T23:59:16.624Z,98411.72
